sensor_id;sensor_type;location;lat;lon;timestamp;P1;durP1;ratioP1;P2;durP2;ratioP2
24261;SDS011;12385;51.412;5.540;2024-02-23T00:00:45;11.57;;;4.63;;
24261;SDS011;12385;51.412;5.540;2024-02-23T00:03:10;10.18;;;4.57;;
24261;SDS011;12385;51.412;5.540;2024-02-23T00:05:36;9.05;;;4.45;;
24261;SDS011;12385;51.412;5.540;2024-02-23T00:08:02;10.45;;;5.25;;
24261;SDS011;12385;51.412;5.540;2024-02-23T00:10:27;5.03;;;3.55;;
24261;SDS011;12385;51.412;5.540;2024-02-23T00:12:55;5.90;;;3.58;;
24261;SDS011;12385;51.412;5.540;2024-02-23T00:15:23;8.77;;;3.60;;
24261;SDS011;12385;51.412;5.540;2024-02-23T00:17:50;6.07;;;3.63;;
24261;SDS011;12385;51.412;5.540;2024-02-23T00:20:20;5.85;;;3.70;;
24261;SDS011;12385;51.412;5.540;2024-02-23T00:22:48;5.53;;;3.50;;
24261;SDS011;12385;51.412;5.540;2024-02-23T00:25:14;8.25;;;4.50;;
24261;SDS011;12385;51.412;5.540;2024-02-23T00:27:40;6.85;;;3.33;;
24261;SDS011;12385;51.412;5.540;2024-02-23T00:30:13;8.32;;;3.65;;
24261;SDS011;12385;51.412;5.540;2024-02-23T00:32:39;11.05;;;3.67;;
24261;SDS011;12385;51.412;5.540;2024-02-23T00:35:05;5.90;;;2.83;;
24261;SDS011;12385;51.412;5.540;2024-02-23T00:37:31;8.80;;;3.22;;
24261;SDS011;12385;51.412;5.540;2024-02-23T00:40:03;7.43;;;2.20;;
24261;SDS011;12385;51.412;5.540;2024-02-23T00:42:30;8.57;;;2.65;;
24261;SDS011;12385;51.412;5.540;2024-02-23T00:44:56;11.48;;;2.00;;
24261;SDS011;12385;51.412;5.540;2024-02-23T00:47:23;7.30;;;2.15;;
24261;SDS011;12385;51.412;5.540;2024-02-23T00:49:49;4.53;;;1.45;;
24261;SDS011;12385;51.412;5.540;2024-02-23T00:52:14;9.55;;;2.10;;
24261;SDS011;12385;51.412;5.540;2024-02-23T00:54:40;6.20;;;1.40;;
24261;SDS011;12385;51.412;5.540;2024-02-23T00:57:06;7.55;;;1.77;;
24261;SDS011;12385;51.412;5.540;2024-02-23T00:59:32;7.63;;;1.58;;
24261;SDS011;12385;51.412;5.540;2024-02-23T01:01:57;7.72;;;1.55;;
24261;SDS011;12385;51.412;5.540;2024-02-23T01:04:23;3.60;;;1.23;;
24261;SDS011;12385;51.412;5.540;2024-02-23T01:06:49;9.15;;;1.30;;
24261;SDS011;12385;51.412;5.540;2024-02-23T01:09:15;8.70;;;1.25;;
24261;SDS011;12385;51.412;5.540;2024-02-23T01:11:46;8.48;;;1.23;;
24261;SDS011;12385;51.412;5.540;2024-02-23T01:14:12;8.00;;;1.23;;
24261;SDS011;12385;51.412;5.540;2024-02-23T01:16:37;12.13;;;1.52;;
24261;SDS011;12385;51.412;5.540;2024-02-23T01:19:03;7.88;;;1.30;;
24261;SDS011;12385;51.412;5.540;2024-02-23T01:21:29;7.28;;;1.17;;
24261;SDS011;12385;51.412;5.540;2024-02-23T01:23:55;7.78;;;1.10;;
24261;SDS011;12385;51.412;5.540;2024-02-23T01:26:25;9.20;;;1.45;;
24261;SDS011;12385;51.412;5.540;2024-02-23T01:28:53;13.00;;;1.73;;
24261;SDS011;12385;51.412;5.540;2024-02-23T01:31:19;15.45;;;2.13;;
24261;SDS011;12385;51.412;5.540;2024-02-23T01:33:44;13.73;;;2.33;;
24261;SDS011;12385;51.412;5.540;2024-02-23T01:36:10;9.35;;;2.10;;
24261;SDS011;12385;51.412;5.540;2024-02-23T01:38:36;13.02;;;2.05;;
24261;SDS011;12385;51.412;5.540;2024-02-23T01:41:01;11.48;;;2.35;;
24261;SDS011;12385;51.412;5.540;2024-02-23T01:43:27;9.82;;;1.90;;
24261;SDS011;12385;51.412;5.540;2024-02-23T01:45:53;8.32;;;1.88;;
24261;SDS011;12385;51.412;5.540;2024-02-23T01:48:19;7.30;;;1.67;;
24261;SDS011;12385;51.412;5.540;2024-02-23T01:50:48;8.35;;;2.05;;
24261;SDS011;12385;51.412;5.540;2024-02-23T01:53:14;5.18;;;1.58;;
24261;SDS011;12385;51.412;5.540;2024-02-23T01:55:43;6.10;;;1.52;;
24261;SDS011;12385;51.412;5.540;2024-02-23T01:58:10;9.55;;;1.83;;
24261;SDS011;12385;51.412;5.540;2024-02-23T02:00:36;6.72;;;1.60;;
24261;SDS011;12385;51.412;5.540;2024-02-23T02:03:02;10.60;;;1.85;;
24261;SDS011;12385;51.412;5.540;2024-02-23T02:05:29;8.70;;;1.85;;
24261;SDS011;12385;51.412;5.540;2024-02-23T02:07:55;8.50;;;1.60;;
24261;SDS011;12385;51.412;5.540;2024-02-23T02:10:25;12.88;;;1.67;;
24261;SDS011;12385;51.412;5.540;2024-02-23T02:12:55;7.20;;;1.55;;
24261;SDS011;12385;51.412;5.540;2024-02-23T02:15:26;7.43;;;1.42;;
24261;SDS011;12385;51.412;5.540;2024-02-23T02:17:53;7.03;;;1.60;;
24261;SDS011;12385;51.412;5.540;2024-02-23T02:20:18;7.78;;;1.40;;
24261;SDS011;12385;51.412;5.540;2024-02-23T02:22:50;8.27;;;1.70;;
24261;SDS011;12385;51.412;5.540;2024-02-23T02:25:19;7.03;;;1.67;;
24261;SDS011;12385;51.412;5.540;2024-02-23T02:27:44;6.53;;;1.50;;
24261;SDS011;12385;51.412;5.540;2024-02-23T02:30:13;8.30;;;1.83;;
24261;SDS011;12385;51.412;5.540;2024-02-23T02:32:39;8.47;;;1.70;;
24261;SDS011;12385;51.412;5.540;2024-02-23T02:35:05;6.25;;;1.60;;
24261;SDS011;12385;51.412;5.540;2024-02-23T02:37:31;12.07;;;1.80;;
24261;SDS011;12385;51.412;5.540;2024-02-23T02:39:57;12.07;;;2.42;;
24261;SDS011;12385;51.412;5.540;2024-02-23T02:42:23;6.97;;;1.40;;
24261;SDS011;12385;51.412;5.540;2024-02-23T02:44:49;7.55;;;1.58;;
24261;SDS011;12385;51.412;5.540;2024-02-23T02:47:14;10.35;;;1.33;;
24261;SDS011;12385;51.412;5.540;2024-02-23T02:49:40;5.68;;;1.45;;
24261;SDS011;12385;51.412;5.540;2024-02-23T02:52:07;9.60;;;1.80;;
24261;SDS011;12385;51.412;5.540;2024-02-23T02:54:33;8.82;;;1.48;;
24261;SDS011;12385;51.412;5.540;2024-02-23T02:56:59;6.47;;;1.40;;
24261;SDS011;12385;51.412;5.540;2024-02-23T02:59:25;6.70;;;1.30;;
24261;SDS011;12385;51.412;5.540;2024-02-23T03:01:50;7.32;;;1.40;;
24261;SDS011;12385;51.412;5.540;2024-02-23T03:04:18;8.73;;;1.50;;
24261;SDS011;12385;51.412;5.540;2024-02-23T03:06:44;12.15;;;1.67;;
24261;SDS011;12385;51.412;5.540;2024-02-23T03:09:10;14.00;;;1.80;;
24261;SDS011;12385;51.412;5.540;2024-02-23T03:11:38;5.63;;;1.48;;
24261;SDS011;12385;51.412;5.540;2024-02-23T03:14:04;8.10;;;1.80;;
24261;SDS011;12385;51.412;5.540;2024-02-23T03:16:31;7.63;;;1.60;;
24261;SDS011;12385;51.412;5.540;2024-02-23T03:18:59;10.88;;;1.90;;
24261;SDS011;12385;51.412;5.540;2024-02-23T03:21:25;5.45;;;1.60;;
24261;SDS011;12385;51.412;5.540;2024-02-23T03:23:52;7.97;;;1.70;;
24261;SDS011;12385;51.412;5.540;2024-02-23T03:26:18;8.70;;;1.98;;
24261;SDS011;12385;51.412;5.540;2024-02-23T03:28:44;9.38;;;1.70;;
24261;SDS011;12385;51.412;5.540;2024-02-23T03:31:10;10.55;;;1.60;;
24261;SDS011;12385;51.412;5.540;2024-02-23T03:33:35;7.93;;;1.80;;
24261;SDS011;12385;51.412;5.540;2024-02-23T03:36:02;10.52;;;2.15;;
24261;SDS011;12385;51.412;5.540;2024-02-23T03:38:29;9.73;;;1.85;;
24261;SDS011;12385;51.412;5.540;2024-02-23T03:40:55;10.27;;;1.85;;
24261;SDS011;12385;51.412;5.540;2024-02-23T03:43:23;10.25;;;1.90;;
24261;SDS011;12385;51.412;5.540;2024-02-23T03:45:49;8.50;;;2.00;;
24261;SDS011;12385;51.412;5.540;2024-02-23T03:48:15;8.15;;;1.88;;
24261;SDS011;12385;51.412;5.540;2024-02-23T03:50:41;8.80;;;1.88;;
24261;SDS011;12385;51.412;5.540;2024-02-23T03:53:06;10.82;;;2.10;;
24261;SDS011;12385;51.412;5.540;2024-02-23T03:55:33;10.88;;;2.17;;
24261;SDS011;12385;51.412;5.540;2024-02-23T03:57:59;8.20;;;2.03;;
24261;SDS011;12385;51.412;5.540;2024-02-23T04:00:24;15.02;;;2.25;;
24261;SDS011;12385;51.412;5.540;2024-02-23T04:02:50;8.45;;;2.17;;
24261;SDS011;12385;51.412;5.540;2024-02-23T04:05:20;8.80;;;2.00;;
24261;SDS011;12385;51.412;5.540;2024-02-23T04:07:45;9.57;;;1.63;;
24261;SDS011;12385;51.412;5.540;2024-02-23T04:10:11;6.55;;;1.65;;
24261;SDS011;12385;51.412;5.540;2024-02-23T04:15:09;7.78;;;1.80;;
24261;SDS011;12385;51.412;5.540;2024-02-23T04:17:35;11.70;;;1.95;;
24261;SDS011;12385;51.412;5.540;2024-02-23T04:20:01;10.75;;;2.17;;
24261;SDS011;12385;51.412;5.540;2024-02-23T04:22:31;11.55;;;1.77;;
24261;SDS011;12385;51.412;5.540;2024-02-23T04:24:57;13.38;;;2.08;;
24261;SDS011;12385;51.412;5.540;2024-02-23T04:27:23;11.43;;;1.70;;
24261;SDS011;12385;51.412;5.540;2024-02-23T04:29:49;12.15;;;2.17;;
24261;SDS011;12385;51.412;5.540;2024-02-23T04:32:14;9.05;;;1.60;;
24261;SDS011;12385;51.412;5.540;2024-02-23T04:34:40;8.10;;;1.77;;
24261;SDS011;12385;51.412;5.540;2024-02-23T04:37:06;8.68;;;1.52;;
24261;SDS011;12385;51.412;5.540;2024-02-23T04:39:32;10.57;;;1.83;;
24261;SDS011;12385;51.412;5.540;2024-02-23T04:41:57;7.95;;;1.90;;
24261;SDS011;12385;51.412;5.540;2024-02-23T04:44:23;9.00;;;1.63;;
24261;SDS011;12385;51.412;5.540;2024-02-23T04:46:53;19.33;;;1.77;;
24261;SDS011;12385;51.412;5.540;2024-02-23T04:51:44;12.20;;;2.10;;
24261;SDS011;12385;51.412;5.540;2024-02-23T04:54:11;10.27;;;1.80;;
24261;SDS011;12385;51.412;5.540;2024-02-23T04:56:36;10.60;;;1.80;;
24261;SDS011;12385;51.412;5.540;2024-02-23T04:59:02;11.68;;;1.85;;
24261;SDS011;12385;51.412;5.540;2024-02-23T05:01:29;11.70;;;1.88;;
24261;SDS011;12385;51.412;5.540;2024-02-23T05:03:59;16.40;;;2.25;;
24261;SDS011;12385;51.412;5.540;2024-02-23T05:06:25;12.38;;;1.67;;
24261;SDS011;12385;51.412;5.540;2024-02-23T05:08:53;7.75;;;1.70;;
24261;SDS011;12385;51.412;5.540;2024-02-23T05:11:19;10.65;;;1.80;;
24261;SDS011;12385;51.412;5.540;2024-02-23T05:13:45;12.32;;;2.08;;
24261;SDS011;12385;51.412;5.540;2024-02-23T05:16:10;11.15;;;1.67;;
24261;SDS011;12385;51.412;5.540;2024-02-23T05:18:38;14.27;;;1.67;;
24261;SDS011;12385;51.412;5.540;2024-02-23T05:21:04;9.73;;;1.70;;
24261;SDS011;12385;51.412;5.540;2024-02-23T05:23:30;12.90;;;1.70;;
24261;SDS011;12385;51.412;5.540;2024-02-23T05:25:55;9.60;;;1.48;;
24261;SDS011;12385;51.412;5.540;2024-02-23T05:28:23;11.73;;;1.60;;
24261;SDS011;12385;51.412;5.540;2024-02-23T05:30:49;12.15;;;1.80;;
24261;SDS011;12385;51.412;5.540;2024-02-23T05:33:16;13.13;;;1.73;;
24261;SDS011;12385;51.412;5.540;2024-02-23T05:35:41;12.48;;;1.80;;
24261;SDS011;12385;51.412;5.540;2024-02-23T05:38:07;12.48;;;1.92;;
24261;SDS011;12385;51.412;5.540;2024-02-23T05:40:33;10.00;;;1.30;;
24261;SDS011;12385;51.412;5.540;2024-02-23T05:42:58;9.68;;;1.58;;
24261;SDS011;12385;51.412;5.540;2024-02-23T05:45:24;10.50;;;1.50;;
24261;SDS011;12385;51.412;5.540;2024-02-23T05:47:50;13.18;;;1.95;;
24261;SDS011;12385;51.412;5.540;2024-02-23T05:50:16;10.52;;;2.25;;
24261;SDS011;12385;51.412;5.540;2024-02-23T05:52:41;10.90;;;1.80;;
24261;SDS011;12385;51.412;5.540;2024-02-23T05:55:07;8.60;;;1.35;;
24261;SDS011;12385;51.412;5.540;2024-02-23T05:57:33;9.05;;;1.48;;
24261;SDS011;12385;51.412;5.540;2024-02-23T05:59:59;10.43;;;2.13;;
24261;SDS011;12385;51.412;5.540;2024-02-23T06:02:25;9.95;;;1.65;;
24261;SDS011;12385;51.412;5.540;2024-02-23T06:04:52;9.27;;;1.88;;
24261;SDS011;12385;51.412;5.540;2024-02-23T06:07:18;15.18;;;2.25;;
24261;SDS011;12385;51.412;5.540;2024-02-23T06:12:14;10.55;;;1.77;;
24261;SDS011;12385;51.412;5.540;2024-02-23T06:14:40;10.32;;;1.60;;
24261;SDS011;12385;51.412;5.540;2024-02-23T06:17:05;9.98;;;1.90;;
24261;SDS011;12385;51.412;5.540;2024-02-23T06:19:33;18.08;;;2.10;;
24261;SDS011;12385;51.412;5.540;2024-02-23T06:21:59;11.77;;;1.80;;
24261;SDS011;12385;51.412;5.540;2024-02-23T06:24:25;10.05;;;2.08;;
24261;SDS011;12385;51.412;5.540;2024-02-23T06:26:53;13.93;;;1.77;;
24261;SDS011;12385;51.412;5.540;2024-02-23T06:29:18;14.18;;;1.88;;
24261;SDS011;12385;51.412;5.540;2024-02-23T06:31:44;7.38;;;1.50;;
24261;SDS011;12385;51.412;5.540;2024-02-23T06:34:14;10.75;;;1.95;;
24261;SDS011;12385;51.412;5.540;2024-02-23T06:36:40;14.77;;;2.22;;
24261;SDS011;12385;51.412;5.540;2024-02-23T06:39:06;9.52;;;1.50;;
24261;SDS011;12385;51.412;5.540;2024-02-23T06:41:33;12.75;;;1.90;;
24261;SDS011;12385;51.412;5.540;2024-02-23T06:43:59;10.73;;;1.83;;
24261;SDS011;12385;51.412;5.540;2024-02-23T06:46:25;13.35;;;1.90;;
24261;SDS011;12385;51.412;5.540;2024-02-23T06:48:52;10.95;;;1.80;;
24261;SDS011;12385;51.412;5.540;2024-02-23T06:51:18;10.82;;;1.60;;
24261;SDS011;12385;51.412;5.540;2024-02-23T06:53:45;16.23;;;2.17;;
24261;SDS011;12385;51.412;5.540;2024-02-23T06:56:11;8.98;;;2.30;;
24261;SDS011;12385;51.412;5.540;2024-02-23T06:58:37;13.57;;;2.33;;
24261;SDS011;12385;51.412;5.540;2024-02-23T07:01:04;7.22;;;1.98;;
24261;SDS011;12385;51.412;5.540;2024-02-23T07:03:36;12.43;;;2.17;;
24261;SDS011;12385;51.412;5.540;2024-02-23T07:06:02;14.23;;;2.40;;
24261;SDS011;12385;51.412;5.540;2024-02-23T07:08:28;9.35;;;2.00;;
24261;SDS011;12385;51.412;5.540;2024-02-23T07:10:55;13.85;;;1.95;;
24261;SDS011;12385;51.412;5.540;2024-02-23T07:13:20;15.13;;;1.98;;
24261;SDS011;12385;51.412;5.540;2024-02-23T07:15:48;9.20;;;1.75;;
24261;SDS011;12385;51.412;5.540;2024-02-23T07:18:14;14.98;;;2.10;;
24261;SDS011;12385;51.412;5.540;2024-02-23T07:20:41;8.40;;;1.67;;
24261;SDS011;12385;51.412;5.540;2024-02-23T07:23:06;12.95;;;1.65;;
24261;SDS011;12385;51.412;5.540;2024-02-23T07:25:32;14.05;;;1.90;;
24261;SDS011;12385;51.412;5.540;2024-02-23T07:27:58;9.43;;;1.92;;
24261;SDS011;12385;51.412;5.540;2024-02-23T07:30:25;10.02;;;1.35;;
24261;SDS011;12385;51.412;5.540;2024-02-23T07:32:50;9.85;;;2.13;;
24261;SDS011;12385;51.412;5.540;2024-02-23T07:35:18;10.45;;;1.40;;
24261;SDS011;12385;51.412;5.540;2024-02-23T07:37:44;6.50;;;1.40;;
24261;SDS011;12385;51.412;5.540;2024-02-23T07:40:10;10.50;;;1.90;;
24261;SDS011;12385;51.412;5.540;2024-02-23T07:42:37;9.75;;;1.60;;
24261;SDS011;12385;51.412;5.540;2024-02-23T07:45:03;9.02;;;1.58;;
24261;SDS011;12385;51.412;5.540;2024-02-23T07:47:32;10.95;;;1.70;;
24261;SDS011;12385;51.412;5.540;2024-02-23T07:49:58;13.25;;;1.90;;
24261;SDS011;12385;51.412;5.540;2024-02-23T07:52:24;9.85;;;1.70;;
24261;SDS011;12385;51.412;5.540;2024-02-23T07:54:53;10.48;;;1.80;;
24261;SDS011;12385;51.412;5.540;2024-02-23T07:57:19;11.98;;;1.90;;
24261;SDS011;12385;51.412;5.540;2024-02-23T07:59:49;11.15;;;1.73;;
24261;SDS011;12385;51.412;5.540;2024-02-23T08:02:14;9.55;;;1.70;;
24261;SDS011;12385;51.412;5.540;2024-02-23T08:04:40;10.50;;;1.83;;
24261;SDS011;12385;51.412;5.540;2024-02-23T08:07:08;14.00;;;1.85;;
24261;SDS011;12385;51.412;5.540;2024-02-23T08:09:34;10.43;;;1.73;;
24261;SDS011;12385;51.412;5.540;2024-02-23T08:12:00;8.27;;;1.50;;
24261;SDS011;12385;51.412;5.540;2024-02-23T08:14:25;11.07;;;2.67;;
24261;SDS011;12385;51.412;5.540;2024-02-23T08:16:53;13.07;;;1.75;;
24261;SDS011;12385;51.412;5.540;2024-02-23T08:19:25;11.10;;;1.52;;
24261;SDS011;12385;51.412;5.540;2024-02-23T08:21:53;6.93;;;1.48;;
24261;SDS011;12385;51.412;5.540;2024-02-23T08:24:18;11.32;;;1.77;;
24261;SDS011;12385;51.412;5.540;2024-02-23T08:26:44;11.95;;;1.60;;
24261;SDS011;12385;51.412;5.540;2024-02-23T08:29:10;10.43;;;1.90;;
24261;SDS011;12385;51.412;5.540;2024-02-23T08:31:35;11.90;;;1.70;;
24261;SDS011;12385;51.412;5.540;2024-02-23T08:34:01;6.93;;;1.73;;
24261;SDS011;12385;51.412;5.540;2024-02-23T08:36:27;8.27;;;1.80;;
24261;SDS011;12385;51.412;5.540;2024-02-23T08:38:54;12.35;;;2.05;;
24261;SDS011;12385;51.412;5.540;2024-02-23T08:41:19;12.43;;;2.33;;
24261;SDS011;12385;51.412;5.540;2024-02-23T08:43:45;12.20;;;1.85;;
24261;SDS011;12385;51.412;5.540;2024-02-23T08:46:11;10.88;;;1.60;;
24261;SDS011;12385;51.412;5.540;2024-02-23T08:48:39;9.50;;;1.77;;
24261;SDS011;12385;51.412;5.540;2024-02-23T08:51:06;11.05;;;2.03;;
24261;SDS011;12385;51.412;5.540;2024-02-23T08:53:32;10.15;;;1.85;;
24261;SDS011;12385;51.412;5.540;2024-02-23T08:55:58;11.73;;;1.63;;
24261;SDS011;12385;51.412;5.540;2024-02-23T08:58:24;9.40;;;1.60;;
24261;SDS011;12385;51.412;5.540;2024-02-23T09:00:50;12.43;;;1.92;;
24261;SDS011;12385;51.412;5.540;2024-02-23T09:03:18;8.13;;;1.70;;
24261;SDS011;12385;51.412;5.540;2024-02-23T09:05:44;11.98;;;1.80;;
24261;SDS011;12385;51.412;5.540;2024-02-23T09:08:12;9.15;;;1.48;;
24261;SDS011;12385;51.412;5.540;2024-02-23T09:10:38;11.52;;;1.50;;
24261;SDS011;12385;51.412;5.540;2024-02-23T09:13:04;7.38;;;1.63;;
24261;SDS011;12385;51.412;5.540;2024-02-23T09:15:30;11.15;;;1.90;;
24261;SDS011;12385;51.412;5.540;2024-02-23T09:17:56;7.30;;;1.50;;
24261;SDS011;12385;51.412;5.540;2024-02-23T09:20:24;11.10;;;1.88;;
24261;SDS011;12385;51.412;5.540;2024-02-23T09:22:49;10.02;;;2.00;;
24261;SDS011;12385;51.412;5.540;2024-02-23T09:25:15;13.27;;;1.65;;
24261;SDS011;12385;51.412;5.540;2024-02-23T09:27:41;14.50;;;1.90;;
24261;SDS011;12385;51.412;5.540;2024-02-23T09:30:11;11.18;;;2.13;;
24261;SDS011;12385;51.412;5.540;2024-02-23T09:32:38;9.82;;;1.65;;
24261;SDS011;12385;51.412;5.540;2024-02-23T09:35:03;8.02;;;1.52;;
24261;SDS011;12385;51.412;5.540;2024-02-23T09:37:31;7.22;;;1.73;;
24261;SDS011;12385;51.412;5.540;2024-02-23T09:39:57;9.43;;;1.67;;
24261;SDS011;12385;51.412;5.540;2024-02-23T09:42:25;6.72;;;1.10;;
24261;SDS011;12385;51.412;5.540;2024-02-23T09:44:59;5.22;;;1.20;;
24261;SDS011;12385;51.412;5.540;2024-02-23T09:47:26;4.90;;;1.08;;
24261;SDS011;12385;51.412;5.540;2024-02-23T09:49:54;8.00;;;1.35;;
24261;SDS011;12385;51.412;5.540;2024-02-23T09:52:24;8.07;;;1.50;;
24261;SDS011;12385;51.412;5.540;2024-02-23T09:54:54;4.68;;;1.00;;
24261;SDS011;12385;51.412;5.540;2024-02-23T09:57:20;7.15;;;1.15;;
24261;SDS011;12385;51.412;5.540;2024-02-23T09:59:50;4.88;;;0.95;;
24261;SDS011;12385;51.412;5.540;2024-02-23T10:02:20;6.45;;;1.30;;
24261;SDS011;12385;51.412;5.540;2024-02-23T10:04:50;11.50;;;1.30;;
24261;SDS011;12385;51.412;5.540;2024-02-23T10:07:24;4.45;;;1.20;;
24261;SDS011;12385;51.412;5.540;2024-02-23T10:09:50;6.82;;;1.42;;
24261;SDS011;12385;51.412;5.540;2024-02-23T10:12:16;6.50;;;1.17;;
24261;SDS011;12385;51.412;5.540;2024-02-23T10:14:42;7.53;;;1.30;;
24261;SDS011;12385;51.412;5.540;2024-02-23T10:17:08;7.03;;;1.40;;
24261;SDS011;12385;51.412;5.540;2024-02-23T10:19:34;7.03;;;1.55;;
24261;SDS011;12385;51.412;5.540;2024-02-23T10:22:00;8.60;;;1.23;;
24261;SDS011;12385;51.412;5.540;2024-02-23T10:24:26;7.68;;;1.30;;
24261;SDS011;12385;51.412;5.540;2024-02-23T10:26:54;5.03;;;1.15;;
24261;SDS011;12385;51.412;5.540;2024-02-23T10:29:20;6.07;;;1.10;;
24261;SDS011;12385;51.412;5.540;2024-02-23T10:31:47;5.05;;;1.02;;
24261;SDS011;12385;51.412;5.540;2024-02-23T10:34:17;7.85;;;1.38;;
24261;SDS011;12385;51.412;5.540;2024-02-23T10:36:44;7.25;;;1.45;;
24261;SDS011;12385;51.412;5.540;2024-02-23T10:39:15;7.57;;;1.33;;
24261;SDS011;12385;51.412;5.540;2024-02-23T10:41:47;7.00;;;1.40;;
24261;SDS011;12385;51.412;5.540;2024-02-23T10:44:24;7.85;;;1.35;;
24261;SDS011;12385;51.412;5.540;2024-02-23T10:46:58;6.88;;;1.20;;
24261;SDS011;12385;51.412;5.540;2024-02-23T10:49:24;7.70;;;1.55;;
24261;SDS011;12385;51.412;5.540;2024-02-23T10:51:54;6.95;;;1.50;;
24261;SDS011;12385;51.412;5.540;2024-02-23T10:54:24;6.05;;;1.30;;
24261;SDS011;12385;51.412;5.540;2024-02-23T10:56:54;7.28;;;1.30;;
24261;SDS011;12385;51.412;5.540;2024-02-23T10:59:20;8.53;;;1.80;;
24261;SDS011;12385;51.412;5.540;2024-02-23T11:01:54;9.15;;;1.48;;
24261;SDS011;12385;51.412;5.540;2024-02-23T11:04:25;8.50;;;2.03;;
24261;SDS011;12385;51.412;5.540;2024-02-23T11:06:54;7.95;;;1.35;;
24261;SDS011;12385;51.412;5.540;2024-02-23T11:09:26;5.65;;;1.40;;
24261;SDS011;12385;51.412;5.540;2024-02-23T11:11:54;8.57;;;1.50;;
24261;SDS011;12385;51.412;5.540;2024-02-23T11:14:37;5.95;;;1.23;;
24261;SDS011;12385;51.412;5.540;2024-02-23T11:17:03;7.55;;;1.35;;
24261;SDS011;12385;51.412;5.540;2024-02-23T11:19:36;6.65;;;1.35;;
24261;SDS011;12385;51.412;5.540;2024-02-23T11:22:03;6.47;;;1.45;;
24261;SDS011;12385;51.412;5.540;2024-02-23T11:24:30;8.10;;;1.50;;
24261;SDS011;12385;51.412;5.540;2024-02-23T11:26:57;6.18;;;1.40;;
24261;SDS011;12385;51.412;5.540;2024-02-23T11:29:28;9.80;;;1.30;;
24261;SDS011;12385;51.412;5.540;2024-02-23T11:31:54;9.43;;;1.17;;
24261;SDS011;12385;51.412;5.540;2024-02-23T11:34:26;6.90;;;1.42;;
24261;SDS011;12385;51.412;5.540;2024-02-23T11:36:55;8.63;;;1.40;;
24261;SDS011;12385;51.412;5.540;2024-02-23T11:39:25;6.35;;;1.33;;
24261;SDS011;12385;51.412;5.540;2024-02-23T11:41:53;7.03;;;1.60;;
24261;SDS011;12385;51.412;5.540;2024-02-23T11:44:19;6.55;;;1.25;;
24261;SDS011;12385;51.412;5.540;2024-02-23T11:46:49;5.63;;;1.20;;
24261;SDS011;12385;51.412;5.540;2024-02-23T11:49:20;6.60;;;1.35;;
24261;SDS011;12385;51.412;5.540;2024-02-23T11:52:04;11.25;;;1.55;;
24261;SDS011;12385;51.412;5.540;2024-02-23T11:54:31;9.60;;;1.67;;
24261;SDS011;12385;51.412;5.540;2024-02-23T11:56:57;8.02;;;1.40;;
24261;SDS011;12385;51.412;5.540;2024-02-23T11:59:24;5.80;;;1.30;;
24261;SDS011;12385;51.412;5.540;2024-02-23T12:01:54;8.10;;;1.48;;
24261;SDS011;12385;51.412;5.540;2024-02-23T12:04:19;5.40;;;1.20;;
24261;SDS011;12385;51.412;5.540;2024-02-23T12:06:53;5.63;;;1.35;;
24261;SDS011;12385;51.412;5.540;2024-02-23T12:09:19;5.78;;;1.13;;
24261;SDS011;12385;51.412;5.540;2024-02-23T12:11:49;6.82;;;1.20;;
24261;SDS011;12385;51.412;5.540;2024-02-23T12:14:19;6.85;;;1.30;;
24261;SDS011;12385;51.412;5.540;2024-02-23T12:16:45;5.40;;;1.30;;
24261;SDS011;12385;51.412;5.540;2024-02-23T12:19:10;4.88;;;1.20;;
24261;SDS011;12385;51.412;5.540;2024-02-23T12:21:36;7.93;;;1.55;;
24261;SDS011;12385;51.412;5.540;2024-02-23T12:24:06;6.90;;;1.33;;
24261;SDS011;12385;51.412;5.540;2024-02-23T12:26:33;5.95;;;1.20;;
24261;SDS011;12385;51.412;5.540;2024-02-23T12:29:02;8.45;;;1.55;;
24261;SDS011;12385;51.412;5.540;2024-02-23T12:31:29;5.45;;;1.20;;
24261;SDS011;12385;51.412;5.540;2024-02-23T12:33:56;9.40;;;1.42;;
24261;SDS011;12385;51.412;5.540;2024-02-23T12:36:24;8.60;;;1.20;;
24261;SDS011;12385;51.412;5.540;2024-02-23T12:38:50;7.60;;;1.35;;
24261;SDS011;12385;51.412;5.540;2024-02-23T12:41:17;5.15;;;1.33;;
24261;SDS011;12385;51.412;5.540;2024-02-23T12:43:43;6.53;;;1.35;;
24261;SDS011;12385;51.412;5.540;2024-02-23T12:46:09;6.88;;;1.48;;
24261;SDS011;12385;51.412;5.540;2024-02-23T12:48:37;6.03;;;1.48;;
24261;SDS011;12385;51.412;5.540;2024-02-23T12:51:03;5.85;;;1.27;;
24261;SDS011;12385;51.412;5.540;2024-02-23T12:53:39;6.85;;;1.10;;
24261;SDS011;12385;51.412;5.540;2024-02-23T12:56:09;7.57;;;1.50;;
24261;SDS011;12385;51.412;5.540;2024-02-23T12:58:37;6.32;;;1.13;;
24261;SDS011;12385;51.412;5.540;2024-02-23T13:01:04;7.45;;;1.10;;
24261;SDS011;12385;51.412;5.540;2024-02-23T13:03:31;5.80;;;1.90;;
24261;SDS011;12385;51.412;5.540;2024-02-23T13:05:57;5.50;;;1.17;;
24261;SDS011;12385;51.412;5.540;2024-02-23T13:08:25;3.17;;;1.10;;
24261;SDS011;12385;51.412;5.540;2024-02-23T13:10:53;5.15;;;1.40;;
24261;SDS011;12385;51.412;5.540;2024-02-23T13:13:20;7.47;;;1.45;;
24261;SDS011;12385;51.412;5.540;2024-02-23T13:15:50;4.82;;;1.10;;
24261;SDS011;12385;51.412;5.540;2024-02-23T13:18:18;6.20;;;1.35;;
24261;SDS011;12385;51.412;5.540;2024-02-23T13:20:44;8.35;;;1.23;;
24261;SDS011;12385;51.412;5.540;2024-02-23T13:23:11;9.77;;;1.40;;
24261;SDS011;12385;51.412;5.540;2024-02-23T13:25:38;4.78;;;1.20;;
24261;SDS011;12385;51.412;5.540;2024-02-23T13:28:05;6.47;;;1.38;;
24261;SDS011;12385;51.412;5.540;2024-02-23T13:30:31;6.07;;;1.13;;
24261;SDS011;12385;51.412;5.540;2024-02-23T13:32:58;7.03;;;1.27;;
24261;SDS011;12385;51.412;5.540;2024-02-23T13:35:24;7.18;;;1.60;;
24261;SDS011;12385;51.412;5.540;2024-02-23T13:37:52;7.38;;;1.27;;
24261;SDS011;12385;51.412;5.540;2024-02-23T13:40:18;7.65;;;1.30;;
24261;SDS011;12385;51.412;5.540;2024-02-23T13:42:47;6.80;;;1.20;;
24261;SDS011;12385;51.412;5.540;2024-02-23T13:45:18;7.35;;;1.10;;
24261;SDS011;12385;51.412;5.540;2024-02-23T13:47:55;8.02;;;1.50;;
24261;SDS011;12385;51.412;5.540;2024-02-23T13:50:25;7.50;;;1.30;;
24261;SDS011;12385;51.412;5.540;2024-02-23T13:52:53;4.78;;;1.30;;
24261;SDS011;12385;51.412;5.540;2024-02-23T13:55:19;7.18;;;1.30;;
24261;SDS011;12385;51.412;5.540;2024-02-23T13:57:48;7.63;;;1.17;;
24261;SDS011;12385;51.412;5.540;2024-02-23T14:00:15;4.60;;;1.10;;
24261;SDS011;12385;51.412;5.540;2024-02-23T14:02:42;8.10;;;1.40;;
24261;SDS011;12385;51.412;5.540;2024-02-23T14:05:08;8.65;;;1.60;;
24261;SDS011;12385;51.412;5.540;2024-02-23T14:07:34;5.90;;;1.30;;
24261;SDS011;12385;51.412;5.540;2024-02-23T14:10:00;8.07;;;1.25;;
24261;SDS011;12385;51.412;5.540;2024-02-23T14:12:26;5.78;;;1.58;;
24261;SDS011;12385;51.412;5.540;2024-02-23T14:14:53;7.70;;;1.45;;
24261;SDS011;12385;51.412;5.540;2024-02-23T14:17:23;8.48;;;1.35;;
24261;SDS011;12385;51.412;5.540;2024-02-23T14:19:49;7.90;;;1.20;;
24261;SDS011;12385;51.412;5.540;2024-02-23T14:22:18;7.15;;;1.50;;
24261;SDS011;12385;51.412;5.540;2024-02-23T14:24:44;8.10;;;1.35;;
24261;SDS011;12385;51.412;5.540;2024-02-23T14:27:09;6.57;;;1.23;;
24261;SDS011;12385;51.412;5.540;2024-02-23T14:29:35;7.60;;;1.17;;
24261;SDS011;12385;51.412;5.540;2024-02-23T14:32:01;5.15;;;1.33;;
24261;SDS011;12385;51.412;5.540;2024-02-23T14:34:27;8.82;;;1.60;;
24261;SDS011;12385;51.412;5.540;2024-02-23T14:36:54;8.57;;;1.50;;
24261;SDS011;12385;51.412;5.540;2024-02-23T14:39:19;6.80;;;1.13;;
24261;SDS011;12385;51.412;5.540;2024-02-23T14:41:48;8.60;;;1.85;;
24261;SDS011;12385;51.412;5.540;2024-02-23T14:44:14;8.57;;;1.70;;
24261;SDS011;12385;51.412;5.540;2024-02-23T14:46:40;7.47;;;1.42;;
24261;SDS011;12385;51.412;5.540;2024-02-23T14:49:06;7.38;;;1.30;;